Time;durP1;ratioP1;P1;durP2;ratioP2;P2;SDS_P1;SDS_P2;PMS_P1;PMS_P2;Temp;Humidity;BMP_temperature;BMP_pressure;BME280_temperature;BME280_humidity;BME280_pressure;Samples;Min_cycle;Max_cycle;Signal;HPM_P1;HPM_P2
2021/01/16 00:00:55;;;;;;;5.25;4.13;;;21.80;49.40;;;;;;4988380;28;20035;-73
2021/01/16 00:03:22;;;;;;;6.53;4.03;;;21.90;50.30;;;;;;4987282;28;20026;-73
2021/01/16 00:05:49;;;;;;;8.15;4.50;;;21.90;49.50;;;;;;4988678;28;20034;-73
2021/01/16 00:08:17;;;;;;;7.82;4.75;;;21.90;49.50;;;;;;4995114;28;20018;-73
2021/01/16 00:10:52;;;;;;;10.32;4.57;;;21.80;49.60;;;;;;5005390;28;20101;-74
2021/01/16 00:13:35;;;;;;;7.72;5.03;;;21.80;50.30;;;;;;4987726;28;20031;-73
2021/01/16 00:16:03;;;;;;;11.52;5.13;;;21.90;49.10;;;;;;4987673;28;20018;-73
2021/01/16 00:18:29;;;;;;;12.07;6.00;;;22.00;49.60;;;;;;4996923;28;20023;-73
2021/01/16 00:21:00;;;;;;;10.13;4.57;;;22.00;49.60;;;;;;4994169;28;20026;-74
2021/01/16 00:23:28;;;;;;;10.10;4.32;;;22.00;49.40;;;;;;4994209;28;20046;-73
2021/01/16 00:25:56;;;;;;;7.97;3.63;;;21.90;49.90;;;;;;4995174;28;20027;-73
2021/01/16 00:28:25;;;;;;;4.60;3.40;;;21.90;49.90;;;;;;4991978;28;20468;-73
2021/01/16 00:30:51;;;;;;;10.23;3.80;;;21.80;50.30;;;;;;4990340;28;20050;-73
2021/01/16 00:33:23;;;;;;;6.82;4.75;;;21.80;50.40;;;;;;4994061;28;20026;-73
2021/01/16 00:35:50;;;;;;;11.77;3.75;;;21.50;49.70;;;;;;4990995;28;20038;-72
2021/01/16 00:38:18;;;;;;;7.80;4.32;;;21.60;50.60;;;;;;4990055;28;20022;-72
2021/01/16 00:40:44;;;;;;;9.05;4.05;;;21.50;49.60;;;;;;4984807;28;20031;-73
2021/01/16 00:43:14;;;;;;;8.82;4.13;;;21.40;49.70;;;;;;4984869;28;20467;-72
2021/01/16 00:45:45;;;;;;;5.68;4.53;;;21.40;50.60;;;;;;4985962;28;20093;-72
2021/01/16 00:48:13;;;;;;;24.60;4.95;;;21.40;51.10;;;;;;4992691;28;20026;-73
2021/01/16 00:50:41;;;;;;;17.50;5.10;;;21.50;51.90;;;;;;4993999;28;20552;-73
2021/01/16 00:53:08;;;;;;;15.60;3.90;;;21.40;50.80;;;;;;4991924;28;20029;-75
2021/01/16 00:55:35;;;;;;;15.85;4.40;;;21.20;50.70;;;;;;4994063;28;20022;-73
2021/01/16 00:58:12;;;;;;;22.70;3.67;;;21.00;50.70;;;;;;4983814;28;20015;-73
2021/01/16 01:00:40;;;;;;;17.05;4.63;;;20.80;51.30;;;;;;4986905;28;20026;-73
2021/01/16 01:03:07;;;;;;;17.88;3.75;;;20.70;51.20;;;;;;4989758;28;20026;-73
2021/01/16 01:05:34;;;;;;;9.68;3.92;;;20.50;51.50;;;;;;4981340;28;20034;-73
2021/01/16 01:08:01;;;;;;;9.68;4.40;;;20.40;51.30;;;;;;4984625;28;20125;-74
2021/01/16 01:10:36;;;;;;;6.00;3.42;;;20.20;51.40;;;;;;4986846;28;20039;-72
2021/01/16 01:13:03;;;;;;;8.40;4.07;;;19.90;51.80;;;;;;4991199;28;20022;-73
2021/01/16 01:15:29;;;;;;;10.13;3.80;;;19.80;52.20;;;;;;4989442;28;20031;-75
2021/01/16 01:18:00;;;;;;;7.88;4.15;;;19.60;52.10;;;;;;4991344;28;20019;-71
2021/01/16 01:20:28;;;;;;;14.25;3.58;;;19.40;52.70;;;;;;4993544;28;20018;-72
2021/01/16 01:22:55;;;;;;;13.73;4.90;;;19.10;53.00;;;;;;4988040;28;20029;-72
2021/01/16 01:25:21;;;;;;;7.50;4.88;;;19.00;53.60;;;;;;4985150;28;20041;-72
2021/01/16 01:27:51;;;;;;;9.57;4.18;;;18.80;53.70;;;;;;4987339;28;20118;-72
2021/01/16 01:30:18;;;;;;;9.52;4.75;;;18.60;54.30;;;;;;4994382;28;20031;-73
2021/01/16 01:32:45;;;;;;;11.98;4.78;;;18.60;54.00;;;;;;4987989;28;20031;-72
2021/01/16 01:35:12;;;;;;;12.18;4.45;;;18.50;54.70;;;;;;4988340;28;20026;-71
2021/01/16 01:37:43;;;;;;;8.77;4.00;;;18.40;53.90;;;;;;4990388;28;20030;-72
2021/01/16 01:40:14;;;;;;;10.18;3.63;;;18.30;54.40;;;;;;4986697;28;20033;-72
2021/01/16 01:42:41;;;;;;;4.50;3.08;;;18.20;54.20;;;;;;4988652;28;20026;-72
2021/01/16 01:45:10;;;;;;;9.73;3.80;;;18.10;54.80;;;;;;4983279;28;20026;-71
2021/01/16 01:47:41;;;;;;;9.52;4.00;;;17.90;55.10;;;;;;4993786;28;20538;-72
2021/01/16 01:50:10;;;;;;;8.50;4.05;;;17.90;54.60;;;;;;4982571;28;20027;-71
2021/01/16 01:52:37;;;;;;;10.05;5.15;;;17.70;55.10;;;;;;4989060;28;20061;-72
2021/01/16 01:55:06;;;;;;;10.00;5.60;;;17.60;55.00;;;;;;4992352;28;20018;-72
2021/01/16 01:57:45;;;;;;;8.45;5.40;;;17.70;54.80;;;;;;4991902;28;20109;-77
2021/01/16 02:00:15;;;;;;;4.22;3.67;;;17.60;54.80;;;;;;4993882;28;20027;-72
2021/01/16 02:02:43;;;;;;;7.47;4.43;;;17.50;55.90;;;;;;5004756;28;20041;-71
2021/01/16 02:05:12;;;;;;;8.95;5.00;;;17.30;55.80;;;;;;4993536;28;20760;-72
2021/01/16 02:07:39;;;;;;;7.85;4.95;;;17.20;55.30;;;;;;4989915;28;20383;-72
2021/01/16 02:10:11;;;;;;;12.38;5.00;;;17.20;55.50;;;;;;4993343;28;20364;-72
2021/01/16 02:12:39;;;;;;;13.40;3.90;;;17.10;55.80;;;;;;4989110;28;20049;-72
2021/01/16 02:15:09;;;;;;;10.15;4.65;;;17.00;56.30;;;;;;4996197;28;20041;-72
2021/01/16 02:17:41;;;;;;;6.78;3.97;;;17.00;56.50;;;;;;4994349;28;20123;-73
2021/01/16 02:20:13;;;;;;;10.35;4.18;;;17.30;56.50;;;;;;4994319;28;20025;-72
2021/01/16 02:23:09;;;;;;;13.40;4.82;;;17.30;55.90;;;;;;4985648;28;20023;-72
2021/01/16 02:25:42;;;;;;;12.50;5.47;;;17.20;55.70;;;;;;4991079;28;20128;-72
2021/01/16 02:28:09;;;;;;;;;;;17.00;56.00;;;;;;4992377;28;20035;-72
2021/01/16 02:30:38;;;;;;;8.75;4.10;;;17.00;56.70;;;;;;4996095;28;19960;-72
2021/01/16 02:33:06;;;;;;;7.32;4.68;;;17.20;56.70;;;;;;4988189;28;20072;-72
2021/01/16 02:35:40;;;;;;;8.85;4.45;;;17.20;56.30;;;;;;4990609;28;20030;-72
2021/01/16 02:38:28;;;;;;;5.32;3.72;;;17.30;56.40;;;;;;4988436;28;20041;-72
2021/01/16 02:41:01;;;;;;;9.98;4.93;;;16.90;56.10;;;;;;4990659;28;20023;-71
2021/01/16 02:43:47;;;;;;;7.85;4.30;;;16.80;56.80;;;;;;4991380;28;20026;-71
2021/01/16 02:46:30;;;;;;;8.93;5.65;;;16.70;57.00;;;;;;4992423;28;20015;-75
2021/01/16 02:49:20;;;;;;;8.05;4.57;;;16.90;56.80;;;;;;4995725;28;20033;-72
2021/01/16 02:52:06;;;;;;;5.85;4.28;;;16.70;56.50;;;;;;4990449;28;20134;-73
2021/01/16 02:54:38;;;;;;;8.88;4.38;;;16.50;57.00;;;;;;4991756;28;20022;-72
2021/01/16 02:57:07;;;;;;;5.57;4.30;;;16.50;57.10;;;;;;4991522;28;20061;-73
2021/01/16 03:00:00;;;;;;;11.68;5.10;;;16.50;57.40;;;;;;4991174;28;20085;-71
2021/01/16 03:02:26;;;;;;;;;;;16.30;57.00;;;;;;4988748;28;20053;-72
2021/01/16 03:04:52;;;;;;;7.90;5.18;;;16.30;57.00;;;;;;4989593;28;19917;-73
2021/01/16 03:07:21;;;;;;;8.10;5.10;;;16.30;57.30;;;;;;4996159;28;20034;-72
2021/01/16 03:09:48;;;;;;;5.68;4.32;;;16.30;57.80;;;;;;4993517;28;20027;-72
2021/01/16 03:12:14;;;;;;;7.57;4.10;;;16.10;58.00;;;;;;4991844;28;20356;-72
2021/01/16 03:14:59;;;;;;;8.90;4.95;;;16.10;58.00;;;;;;4995858;28;20522;-72
2021/01/16 03:17:38;;;;;;;9.55;4.70;;;16.10;58.00;;;;;;4992663;28;20039;-72
2021/01/16 03:20:05;;;;;;;8.02;4.80;;;16.10;57.50;;;;;;4991781;28;20030;-72
2021/01/16 03:22:31;;;;;;;19.42;5.97;;;16.00;57.80;;;;;;4996681;28;20054;-72
2021/01/16 03:24:58;;;;;;;7.07;4.75;;;16.00;57.50;;;;;;4993637;28;20085;-72
2021/01/16 03:27:26;;;;;;;10.10;5.35;;;16.00;57.40;;;;;;4993563;28;20019;-72
2021/01/16 03:29:53;;;;;;;7.50;4.75;;;16.00;57.80;;;;;;4986759;28;20030;-72
2021/01/16 03:32:21;;;;;;;9.48;5.43;;;16.20;57.80;;;;;;4994429;28;20110;-72
2021/01/16 03:34:48;;;;;;;11.30;5.43;;;16.30;57.40;;;;;;4994417;28;20459;-70
2021/01/16 03:37:16;;;;;;;6.35;4.82;;;16.30;57.30;;;;;;4992769;28;20034;-72
2021/01/16 03:39:43;;;;;;;6.38;5.22;;;16.20;57.40;;;;;;4995123;28;20030;-72
2021/01/16 03:42:10;;;;;;;7.28;4.15;;;16.20;57.70;;;;;;4995058;28;20464;-73
2021/01/16 03:44:36;;;;;;;10.43;4.85;;;16.10;57.50;;;;;;4991417;28;20034;-71
2021/01/16 03:47:03;;;;;;;5.63;4.13;;;16.10;57.90;;;;;;4989383;28;20026;-72
2021/01/16 03:49:30;;;;;;;6.45;4.72;;;16.00;57.70;;;;;;4990095;28;20634;-70
2021/01/16 03:51:57;;;;;;;7.75;4.50;;;15.80;58.10;;;;;;4995697;28;20030;-71
2021/01/16 03:54:23;;;;;;;13.48;5.18;;;15.80;58.20;;;;;;4994357;28;20085;-73
2021/01/16 03:56:50;;;;;;;6.05;4.20;;;15.80;58.50;;;;;;4987306;28;20065;-72
2021/01/16 03:59:16;;;;;;;9.18;4.97;;;15.70;58.40;;;;;;4990385;28;20474;-72
2021/01/16 04:01:45;;;;;;;7.60;4.63;;;15.70;58.70;;;;;;4986882;28;20030;-72
2021/01/16 04:04:11;;;;;;;7.22;5.00;;;15.80;59.00;;;;;;4984270;28;20432;-75
2021/01/16 04:06:38;;;;;;;7.20;5.18;;;15.80;59.00;;;;;;4992203;28;20041;-74
2021/01/16 04:09:04;;;;;;;10.68;6.70;;;15.80;58.70;;;;;;4989798;28;20022;-76
2021/01/16 04:11:31;;;;;;;10.85;5.07;;;15.60;58.80;;;;;;4990746;28;20478;-74
2021/01/16 04:13:57;;;;;;;9.15;5.25;;;15.70;59.20;;;;;;4992082;28;20416;-74
2021/01/16 04:16:27;;;;;;;7.45;5.20;;;15.80;58.90;;;;;;4991414;28;20019;-71
2021/01/16 04:18:55;;;;;;;7.25;5.72;;;15.80;59.00;;;;;;4989135;28;20073;-72
2021/01/16 04:21:22;;;;;;;6.85;5.68;;;15.80;59.10;;;;;;4992567;28;20037;-73
2021/01/16 04:23:48;;;;;;;8.60;4.60;;;15.90;59.00;;;;;;4983562;28;20023;-73
2021/01/16 04:26:15;;;;;;;8.27;4.47;;;15.90;59.10;;;;;;4990327;28;20022;-72
2021/01/16 04:28:41;;;;;;;7.40;5.18;;;15.80;58.60;;;;;;4988028;28;20058;-73
2021/01/16 04:31:08;;;;;;;8.93;5.35;;;15.80;58.70;;;;;;4991005;28;20022;-73
2021/01/16 04:33:34;;;;;;;6.35;5.22;;;15.70;58.80;;;;;;4989360;28;20030;-73
2021/01/16 04:36:01;;;;;;;14.40;5.35;;;15.80;59.10;;;;;;4984805;28;20116;-70
2021/01/16 04:38:27;;;;;;;11.63;6.00;;;15.90;58.80;;;;;;4984267;28;20464;-70
2021/01/16 04:40:54;;;;;;;8.70;5.53;;;15.70;59.00;;;;;;4985653;28;20034;-69
2021/01/16 04:43:21;;;;;;;11.20;6.15;;;15.50;59.40;;;;;;4994587;28;20034;-71
2021/01/16 04:45:50;;;;;;;12.85;5.57;;;15.50;60.10;;;;;;4992559;28;20039;-71
2021/01/16 04:48:19;;;;;;;12.32;5.78;;;15.50;59.40;;;;;;4983748;28;20036;-70
2021/01/16 04:50:50;;;;;;;8.82;5.60;;;15.40;59.90;;;;;;4987876;28;20018;-71
2021/01/16 04:53:19;;;;;;;11.50;5.60;;;15.70;59.80;;;;;;4988456;28;20380;-71
2021/01/16 04:55:47;;;;;;;8.25;5.68;;;15.70;59.70;;;;;;4990431;28;20054;-71
2021/01/16 04:58:13;;;;;;;7.63;6.60;;;15.60;59.50;;;;;;4990849;28;20097;-71
2021/01/16 05:00:41;;;;;;;10.43;5.95;;;15.30;59.80;;;;;;4991028;28;20029;-71
2021/01/16 05:03:12;;;;;;;8.85;5.95;;;15.30;60.80;;;;;;4993830;28;20346;-71
2021/01/16 05:05:40;;;;;;;9.77;5.30;;;15.50;60.30;;;;;;4994618;28;20023;-71
2021/01/16 05:08:08;;;;;;;13.10;6.70;;;15.50;60.10;;;;;;4992314;28;20029;-72
2021/01/16 05:10:40;;;;;;;14.38;6.10;;;15.60;60.00;;;;;;4992056;28;20022;-72
2021/01/16 05:13:17;;;;;;;9.60;5.55;;;15.60;60.00;;;;;;4988734;28;20093;-73
2021/01/16 05:15:45;;;;;;;14.73;5.28;;;15.40;60.10;;;;;;4991659;28;20114;-72
2021/01/16 05:18:17;;;;;;;9.07;6.43;;;15.40;60.80;;;;;;4988327;28;20160;-72
2021/01/16 05:20:46;;;;;;;10.30;5.90;;;15.60;60.40;;;;;;4985760;28;20101;-71
2021/01/16 05:23:15;;;;;;;9.52;5.60;;;15.70;60.00;;;;;;4994236;28;20065;-72
2021/01/16 05:25:52;;;;;;;6.72;6.00;;;15.60;59.90;;;;;;4992708;28;20026;-74
2021/01/16 05:28:20;;;;;;;7.88;6.18;;;15.60;60.20;;;;;;4984376;28;20476;-73
2021/01/16 05:30:54;;;;;;;9.65;6.78;;;15.60;60.20;;;;;;4983834;28;20038;-71
2021/01/16 05:33:27;;;;;;;12.02;7.20;;;15.60;60.20;;;;;;4993452;28;20053;-70
2021/01/16 05:35:56;;;;;;;11.57;6.70;;;15.60;60.40;;;;;;4989909;28;20023;-71
2021/01/16 05:38:25;;;;;;;9.90;6.82;;;15.60;60.50;;;;;;4984112;28;20019;-71
2021/01/16 05:40:54;;;;;;;16.08;7.20;;;15.50;60.50;;;;;;4989565;28;20075;-71
2021/01/16 05:43:21;;;;;;;15.85;7.18;;;15.70;60.50;;;;;;4985283;28;20126;-71
2021/01/16 05:45:52;;;;;;;10.90;5.60;;;15.60;60.40;;;;;;4986527;28;20035;-71
2021/01/16 05:48:19;;;;;;;16.65;7.47;;;15.70;60.80;;;;;;4992019;28;20068;-70
2021/01/16 05:50:47;;;;;;;10.18;6.03;;;15.70;60.50;;;;;;4984812;28;20026;-71
2021/01/16 05:53:14;;;;;;;8.85;6.32;;;15.60;60.50;;;;;;4992241;28;20041;-71
2021/01/16 05:55:42;;;;;;;15.32;6.43;;;15.60;61.10;;;;;;4978955;28;20563;-71
2021/01/16 05:58:09;;;;;;;7.22;4.97;;;15.70;60.60;;;;;;4991804;28;20041;-71
2021/01/16 06:00:38;;;;;;;11.18;5.75;;;15.80;60.20;;;;;;4990733;28;20034;-70
2021/01/16 06:03:07;;;;;;;16.63;5.78;;;15.80;60.00;;;;;;4996926;28;20026;-71
2021/01/16 06:05:35;;;;;;;14.60;6.63;;;15.80;59.90;;;;;;4990131;28;20482;-72
2021/01/16 06:08:06;;;;;;;10.02;6.00;;;15.80;59.80;;;;;;4992293;28;20035;-70
2021/01/16 06:10:34;;;;;;;9.45;5.22;;;15.80;59.70;;;;;;4986840;28;20084;-72
2021/01/16 06:13:24;;;;;;;9.45;4.80;;;15.70;59.70;;;;;;4986725;28;20065;-72
2021/01/16 06:15:55;;;;;;;6.53;5.22;;;15.80;59.80;;;;;;4987037;28;20122;-71
2021/01/16 06:18:29;;;;;;;9.60;4.43;;;15.90;59.10;;;;;;4992605;28;20364;-76
2021/01/16 06:20:56;;;;;;;6.85;4.43;;;15.90;59.70;;;;;;4990441;28;20038;-71
2021/01/16 06:23:29;;;;;;;5.28;4.03;;;15.70;59.20;;;;;;4981124;28;20026;-72
2021/01/16 06:25:57;;;;;;;6.57;5.15;;;15.60;59.80;;;;;;4988824;28;20041;-74
2021/01/16 06:28:25;;;;;;;9.05;4.55;;;15.50;60.20;;;;;;4985873;28;20380;-72
2021/01/16 06:30:59;;;;;;;8.70;3.70;;;15.50;60.40;;;;;;4991120;28;20084;-72
2021/01/16 06:33:29;;;;;;;7.10;4.70;;;15.30;60.70;;;;;;4994451;28;20031;-72
2021/01/16 06:36:04;;;;;;;5.03;4.35;;;15.30;60.60;;;;;;4989433;28;20026;-72
2021/01/16 06:38:32;;;;;;;8.88;4.22;;;15.40;60.70;;;;;;4992450;28;20440;-72
2021/01/16 06:41:12;;;;;;;8.88;5.93;;;15.30;60.40;;;;;;4986689;28;20456;-72
2021/01/16 06:43:40;;;;;;;7.68;4.80;;;15.30;60.50;;;;;;4987161;28;20464;-72
2021/01/16 06:46:13;;;;;;;4.82;4.43;;;15.20;60.40;;;;;;4996621;28;20037;-72
2021/01/16 06:48:46;;;;;;;6.30;4.53;;;15.10;60.40;;;;;;4996023;28;20026;-72
2021/01/16 06:51:23;;;;;;;9.88;5.32;;;15.20;60.30;;;;;;4993492;28;20034;-71
2021/01/16 06:53:50;;;;;;;12.45;5.55;;;15.30;59.70;;;;;;4991209;28;20121;-72
2021/01/16 06:56:26;;;;;;;13.13;4.80;;;15.30;59.40;;;;;;4991584;28;20656;-73
2021/01/16 06:58:55;;;;;;;5.82;4.10;;;15.10;59.90;;;;;;4990338;28;20018;-74
2021/01/16 07:01:32;;;;;;;9.00;4.95;;;14.90;60.20;;;;;;4987609;28;20077;-72
2021/01/16 07:04:03;;;;;;;8.20;5.03;;;14.90;60.50;;;;;;4981796;28;20100;-73
2021/01/16 07:06:45;;;;;;;8.38;4.68;;;14.80;60.60;;;;;;4988867;28;20031;-73
2021/01/16 07:09:20;;;;;;;13.57;5.50;;;14.70;60.50;;;;;;4987895;28;20364;-72
2021/01/16 07:11:48;;;;;;;7.78;3.78;;;14.60;60.70;;;;;;4987842;28;20088;-73
2021/01/16 07:14:16;;;;;;;5.45;4.40;;;14.50;61.10;;;;;;4986230;28;20027;-72
2021/01/16 07:16:44;;;;;;;5.28;4.78;;;14.30;61.60;;;;;;4988075;28;20027;-73
2021/01/16 07:19:18;;;;;;;6.07;5.03;;;14.40;61.60;;;;;;4985943;28;20419;-73
2021/01/16 07:21:45;;;;;;;9.90;4.95;;;14.30;61.20;;;;;;4989836;28;20041;-71
2021/01/16 07:24:12;;;;;;;8.70;5.45;;;14.40;60.90;;;;;;4990410;28;20038;-76
2021/01/16 07:26:44;;;;;;;12.10;5.13;;;14.40;60.90;;;;;;4984874;28;20088;-72
2021/01/16 07:29:11;;;;;;;6.68;4.90;;;14.40;61.40;;;;;;4985600;28;20039;-76
2021/01/16 07:31:40;;;;;;;11.35;5.68;;;14.30;61.50;;;;;;4980394;28;20084;-72
2021/01/16 07:34:07;;;;;;;10.07;4.68;;;14.20;61.70;;;;;;4992352;28;20037;-71
2021/01/16 07:36:35;;;;;;;5.72;5.10;;;14.10;61.80;;;;;;4988737;28;20038;-72
2021/01/16 07:39:10;;;;;;;14.50;5.45;;;14.00;62.00;;;;;;4992138;28;20408;-72
2021/01/16 07:41:38;;;;;;;11.95;6.78;;;14.00;61.90;;;;;;5005075;28;20038;-71
2021/01/16 07:44:07;;;;;;;10.77;4.80;;;14.00;61.30;;;;;;5006340;28;20026;-72
2021/01/16 07:46:35;;;;;;;7.20;4.93;;;14.00;61.40;;;;;;4990430;28;20114;-71
2021/01/16 07:49:04;;;;;;;12.68;5.28;;;14.00;61.50;;;;;;4992493;28;20031;-71
2021/01/16 07:51:38;;;;;;;8.40;4.80;;;14.00;61.20;;;;;;4991874;28;20027;-73
2021/01/16 07:54:12;;;;;;;10.05;5.35;;;14.00;61.50;;;;;;4993748;28;20034;-72
2021/01/16 07:56:39;;;;;;;9.70;5.93;;;13.80;62.00;;;;;;4992965;28;20026;-71
2021/01/16 07:59:23;;;;;;;12.00;5.40;;;13.70;61.50;;;;;;4999600;28;20084;-71
2021/01/16 08:02:24;;;;;;;7.78;5.45;;;13.70;62.00;;;;;;4993848;28;20026;-72
2021/01/16 08:05:19;;;;;;;10.55;6.05;;;13.70;61.90;;;;;;4996495;28;20026;-74
2021/01/16 08:08:13;;;;;;;8.55;5.82;;;13.70;61.70;;;;;;4996345;28;20356;-72
2021/01/16 08:10:41;;;;;;;11.10;5.95;;;13.70;62.60;;;;;;4994262;28;20030;-72
2021/01/16 08:13:11;;;;;;;11.52;6.30;;;13.70;62.30;;;;;;4996132;28;20049;-73
2021/01/16 08:15:42;;;;;;;7.80;6.85;;;13.60;61.80;;;;;;4991255;28;20029;-72
2021/01/16 08:18:16;;;;;;;12.20;7.53;;;13.80;63.20;;;;;;4986541;28;20455;-71
2021/01/16 08:20:46;;;;;;;14.20;7.65;;;13.90;63.10;;;;;;4991451;28;20026;-71
2021/01/16 08:23:22;;;;;;;9.95;7.20;;;14.00;62.70;;;;;;4992814;28;20038;-71
2021/01/16 08:25:49;;;;;;;12.82;7.07;;;14.00;62.70;;;;;;4990491;28;20026;-72
2021/01/16 08:28:26;;;;;;;14.60;7.93;;;13.90;62.80;;;;;;4995788;28;20392;-74
2021/01/16 08:30:53;;;;;;;10.73;6.90;;;14.00;63.30;;;;;;4994540;28;20448;-72
2021/01/16 08:33:35;;;;;;;13.90;7.18;;;14.10;63.40;;;;;;4991103;28;20026;-70
2021/01/16 08:36:18;;;;;;;17.05;8.27;;;14.10;63.30;;;;;;4986919;28;20102;-71
2021/01/16 08:38:46;;;;;;;11.75;7.60;;;13.80;62.90;;;;;;4993576;28;20019;-72
2021/01/16 08:41:23;;;;;;;14.07;7.95;;;13.70;63.40;;;;;;4994625;28;20102;-71
2021/01/16 08:43:58;;;;;;;11.77;7.63;;;13.70;63.60;;;;;;4989113;28;20026;-71
2021/01/16 08:46:36;;;;;;;11.40;8.10;;;13.70;63.90;;;;;;4994431;28;20110;-71
2021/01/16 08:49:10;;;;;;;13.75;9.27;;;14.00;64.30;;;;;;4983900;28;20105;-71
2021/01/16 08:51:44;;;;;;;16.65;7.90;;;14.00;63.90;;;;;;4994199;28;20452;-71
2021/01/16 08:54:21;;;;;;;12.15;7.45;;;13.90;63.90;;;;;;4991781;28;20056;-71
2021/01/16 08:57:01;;;;;;;15.63;9.13;;;13.90;64.00;;;;;;4984964;28;20098;-71
2021/01/16 08:59:32;;;;;;;16.38;8.65;;;13.90;63.90;;;;;;4993168;28;20030;-73
2021/01/16 09:02:18;;;;;;;16.23;7.10;;;13.80;64.20;;;;;;4994130;28;20026;-71
2021/01/16 09:04:45;;;;;;;9.00;6.32;;;14.00;64.60;;;;;;4993533;28;20035;-71
2021/01/16 09:07:22;;;;;;;9.30;7.50;;;14.10;64.10;;;;;;4990273;28;20026;-71
2021/01/16 09:10:21;;;;;;;8.88;6.05;;;14.20;63.80;;;;;;4978022;28;20086;-70
2021/01/16 09:12:47;;;;;;;14.88;7.38;;;14.20;63.70;;;;;;4993506;28;20022;-72
2021/01/16 09:15:24;;;;;;;12.30;6.32;;;14.30;63.40;;;;;;4994363;28;20022;-71
2021/01/16 09:18:03;;;;;;;9.07;7.55;;;14.40;63.50;;;;;;4993872;28;20030;-71
2021/01/16 09:20:32;;;;;;;12.43;7.00;;;14.40;63.10;;;;;;4991544;28;20105;-71
2021/01/16 09:22:58;;;;;;;9.35;6.47;;;14.40;63.30;;;;;;4993104;28;20025;-71
2021/01/16 09:25:25;;;;;;;14.85;6.05;;;14.50;63.00;;;;;;4994192;28;20026;-71
2021/01/16 09:27:55;;;;;;;12.00;6.32;;;14.40;62.60;;;;;;4993879;28;20081;-71
2021/01/16 09:30:28;;;;;;;13.75;7.13;;;14.50;62.80;;;;;;4990453;28;20431;-73
2021/01/16 09:32:54;;;;;;;9.98;6.65;;;14.50;62.70;;;;;;4997402;28;20030;-72
2021/01/16 09:35:50;;;;;;;9.40;7.15;;;14.40;62.80;;;;;;4996541;28;20108;-71
2021/01/16 09:38:19;;;;;;;9.30;6.30;;;14.40;63.70;;;;;;4992055;28;20030;-71
2021/01/16 09:40:47;;;;;;;8.35;7.22;;;14.40;62.80;;;;;;4997521;28;20057;-72
2021/01/16 09:43:26;;;;;;;9.93;6.68;;;14.60;62.40;;;;;;4997632;28;20482;-72
2021/01/16 09:45:55;;;;;;;13.60;6.35;;;14.50;62.40;;;;;;4993346;28;20416;-72
2021/01/16 09:48:43;;;;;;;9.50;6.90;;;14.30;62.70;;;;;;4971708;28;20117;-72
2021/01/16 09:51:11;;;;;;;10.80;7.43;;;14.30;63.00;;;;;;4995107;28;20609;-72
2021/01/16 09:53:40;;;;;;;10.15;7.45;;;14.40;62.90;;;;;;4997664;28;20026;-72
2021/01/16 09:56:07;;;;;;;8.95;5.15;;;14.30;62.90;;;;;;4997751;28;20026;-71
2021/01/16 09:58:42;;;;;;;13.95;5.80;;;14.30;62.80;;;;;;4997841;28;20019;-72
2021/01/16 10:01:23;;;;;;;8.63;6.22;;;14.30;62.80;;;;;;4989856;28;20460;-72
2021/01/16 10:03:53;;;;;;;10.02;6.55;;;14.30;62.80;;;;;;4997451;28;20075;-70
2021/01/16 10:06:20;;;;;;;11.27;6.15;;;14.30;62.70;;;;;;4981324;28;20033;-70
2021/01/16 10:08:48;;;;;;;9.27;5.72;;;14.30;62.50;;;;;;4997220;28;20041;-71
2021/01/16 10:11:44;;;;;;;8.90;6.72;;;14.10;62.90;;;;;;4996623;28;20042;-71
2021/01/16 10:14:19;;;;;;;8.95;6.50;;;14.10;63.20;;;;;;4994369;28;20053;-71
2021/01/16 10:16:46;;;;;;;10.00;6.38;;;14.20;62.80;;;;;;4995261;28;20033;-71
2021/01/16 10:19:14;;;;;;;7.45;6.32;;;14.20;62.70;;;;;;4985554;28;20033;-70
2021/01/16 10:21:57;;;;;;;8.48;6.15;;;14.30;62.50;;;;;;4994394;28;20030;-71
2021/01/16 10:24:24;;;;;;;8.98;6.30;;;14.40;62.30;;;;;;4997208;28;20038;-73
2021/01/16 10:26:51;;;;;;;11.75;6.20;;;14.30;62.50;;;;;;4994035;28;20038;-71
2021/01/16 10:29:41;;;;;;;7.05;6.38;;;14.10;62.70;;;;;;4996421;28;20109;-71
2021/01/16 10:32:21;;;;;;;9.32;5.45;;;14.10;62.90;;;;;;4995626;28;20119;-71
2021/01/16 10:34:57;;;;;;;8.68;6.80;;;14.20;62.60;;;;;;4997374;28;20109;-71
2021/01/16 10:37:28;;;;;;;11.88;5.80;;;14.30;62.40;;;;;;4994161;28;20026;-72
2021/01/16 10:40:02;;;;;;;15.82;6.18;;;14.30;62.20;;;;;;4998044;28;20022;-71
2021/01/16 10:42:43;;;;;;;7.40;5.38;;;14.30;62.10;;;;;;4996842;28;20113;-72
2021/01/16 10:45:10;;;;;;;7.53;5.47;;;14.30;62.10;;;;;;4995365;28;20065;-71
2021/01/16 10:47:39;;;;;;;9.13;5.30;;;14.30;62.00;;;;;;4995374;28;20030;-71
2021/01/16 10:50:18;;;;;;;7.43;4.90;;;14.30;61.90;;;;;;4995719;28;20093;-71
2021/01/16 10:52:44;;;;;;;7.03;4.72;;;14.20;62.00;;;;;;4995786;28;20030;-71
2021/01/16 10:55:13;;;;;;;11.98;6.07;;;14.20;62.00;;;;;;4996535;28;20022;-71
2021/01/16 10:57:41;;;;;;;6.60;5.45;;;14.20;62.00;;;;;;4996348;28;20026;-71
2021/01/16 11:00:12;;;;;;;6.25;5.65;;;14.20;61.90;;;;;;4996290;28;20510;-71
2021/01/16 11:02:41;;;;;;;7.47;4.55;;;14.20;61.80;;;;;;4994275;28;20384;-71
2021/01/16 11:05:20;;;;;;;7.15;5.07;;;14.20;61.50;;;;;;4997055;28;20053;-70
2021/01/16 11:07:48;;;;;;;7.63;5.00;;;14.10;61.80;;;;;;4991055;28;20117;-70
2021/01/16 11:10:16;;;;;;;5.57;4.50;;;14.10;62.00;;;;;;4994488;28;20038;-70
2021/01/16 11:12:44;;;;;;;6.95;4.40;;;14.00;61.90;;;;;;4995308;28;20038;-70
2021/01/16 11:15:23;;;;;;;4.88;4.45;;;13.90;62.10;;;;;;4996896;28;20038;-71
2021/01/16 11:17:57;;;;;;;4.97;3.97;;;13.70;62.40;;;;;;4997295;28;20026;-70
2021/01/16 11:20:48;;;;;;;8.50;5.55;;;13.60;62.80;;;;;;4994881;28;20054;-71
2021/01/16 11:23:30;;;;;;;7.53;4.22;;;13.50;62.80;;;;;;4990886;28;20476;-70
2021/01/16 11:25:58;;;;;;;6.82;6.10;;;13.40;63.20;;;;;;4994456;28;20041;-71
2021/01/16 11:28:27;;;;;;;6.78;4.75;;;13.40;63.10;;;;;;4994980;28;20079;-71
2021/01/16 11:31:36;;;;;;;10.15;5.05;;;13.40;63.40;;;;;;4994380;28;20032;-71
2021/01/16 11:34:08;;;;;;;7.90;4.72;;;13.60;62.70;;;;;;4993752;28;20065;-71
2021/01/16 11:36:35;;;;;;;;;;;13.40;62.80;;;;;;4986781;28;20028;-69
2021/01/16 11:39:01;;;;;;;6.50;4.40;;;13.30;63.70;;;;;;4996040;28;19910;-70
2021/01/16 11:41:53;;;;;;;8.18;4.40;;;13.30;63.10;;;;;;5001841;28;20033;-71
2021/01/16 11:44:20;;;;;;;5.47;4.13;;;13.20;63.20;;;;;;4995822;28;20034;-70
2021/01/16 11:46:53;;;;;;;6.05;3.83;;;13.20;63.20;;;;;;4995702;28;20034;-70
2021/01/16 11:49:21;;;;;;;8.90;4.15;;;13.10;63.20;;;;;;4992116;28;20101;-70
2021/01/16 11:51:47;;;;;;;9.98;4.00;;;13.00;63.40;;;;;;4984621;28;20553;-69
2021/01/16 11:54:13;;;;;;;6.32;4.68;;;12.90;63.50;;;;;;4995493;28;20030;-69
2021/01/16 11:56:41;;;;;;;5.00;3.83;;;12.90;63.60;;;;;;4994778;28;20034;-70
2021/01/16 11:59:09;;;;;;;5.20;4.65;;;12.90;63.80;;;;;;4994792;28;20061;-69
2021/01/16 12:01:40;;;;;;;5.05;4.00;;;12.70;63.60;;;;;;4994464;28;20459;-72
2021/01/16 12:04:07;;;;;;;4.60;4.20;;;12.70;63.90;;;;;;4994703;28;20030;-71
2021/01/16 12:06:35;;;;;;;5.43;4.03;;;12.70;63.80;;;;;;4994352;28;20030;-70
2021/01/16 12:09:03;;;;;;;4.85;4.25;;;12.70;63.70;;;;;;4995736;28;20061;-70
2021/01/16 12:11:30;;;;;;;10.55;4.60;;;12.70;63.90;;;;;;4994526;28;20018;-70
2021/01/16 12:13:57;;;;;;;4.53;4.03;;;12.50;64.10;;;;;;4994622;28;20026;-71
2021/01/16 12:16:23;;;;;;;5.88;4.35;;;12.50;64.10;;;;;;4994418;28;20033;-71
2021/01/16 12:18:51;;;;;;;6.85;4.43;;;12.50;64.30;;;;;;4989510;28;20018;-70
2021/01/16 12:21:24;;;;;;;12.43;5.28;;;12.50;64.10;;;;;;4975602;28;20031;-70
2021/01/16 12:23:52;;;;;;;8.45;4.90;;;12.50;63.90;;;;;;4989738;28;20109;-70
2021/01/16 12:26:18;;;;;;;10.00;4.15;;;12.40;63.80;;;;;;4993727;28;20974;-70
2021/01/16 12:28:50;;;;;;;6.35;4.50;;;12.40;64.00;;;;;;4993773;28;20038;-70
2021/01/16 12:31:22;;;;;;;4.68;4.28;;;12.40;64.00;;;;;;4993493;28;20026;-70
2021/01/16 12:33:49;;;;;;;8.05;5.00;;;12.40;64.30;;;;;;4987239;28;20039;-70
2021/01/16 12:36:16;;;;;;;10.27;4.97;;;12.30;64.70;;;;;;4980853;28;20117;-71
2021/01/16 12:38:50;;;;;;;4.65;4.05;;;12.20;64.40;;;;;;4992533;28;20026;-70
2021/01/16 12:41:21;;;;;;;5.65;4.40;;;12.20;64.50;;;;;;4995369;28;20511;-70
2021/01/16 12:43:48;;;;;;;14.98;5.57;;;12.20;64.40;;;;;;4994310;28;20038;-70
2021/01/16 12:46:17;;;;;;;9.48;4.97;;;12.30;64.40;;;;;;4994091;28;20029;-74
2021/01/16 12:48:44;;;;;;;7.93;4.68;;;12.30;64.50;;;;;;4995953;28;20109;-72
2021/01/16 12:51:16;;;;;;;6.65;4.80;;;12.40;64.30;;;;;;4993206;28;20092;-70
2021/01/16 12:53:43;;;;;;;6.35;4.82;;;12.40;64.20;;;;;;4993697;28;20030;-72
2021/01/16 12:56:29;;;;;;;7.93;5.13;;;12.40;64.30;;;;;;4993836;28;20022;-70
2021/01/16 12:58:56;;;;;;;5.60;5.10;;;12.30;64.20;;;;;;4993816;28;20026;-70
2021/01/16 13:01:22;;;;;;;8.55;5.78;;;12.20;64.50;;;;;;4993260;28;20073;-70
2021/01/16 13:03:49;;;;;;;9.27;4.90;;;12.20;64.80;;;;;;4993265;28;20072;-72